Terminal Aerodrome Forecast
Issued by NWS

Home | Current Version | Previous Version | Text Only | Print | Product List | Glossary On
Versions: 1 2 3 4 5 6 7 8 9 10 11 12 13 14 15 16 17 18 19 20 21 22 23 24 25 26 27 28 29
000
FTUS41 KBOX 272324
TAFFMH
TAF
KFMH 272324Z 2800/2824 22007KT P6SM SCT050
     FM280400 26006KT P6SM -RA BKN050
     FM280900 VRB03KT P6SM SCT040
     FM281200 02007KT P6SM SCT250
     FM282100 35008KT P6SM FEW050=

USA.gov is the U.S. government's official web portal to all federal, state and local government web resources and services.